createdAt,value
2023-07-04T00:00:50.504Z,95113.00
2023-07-04T00:01:50.515Z,95111.00
2023-07-04T00:02:50.516Z,95113.00
2023-07-04T00:03:50.555Z,95115.00
2023-07-04T00:04:50.586Z,95115.00
2023-07-04T00:05:50.634Z,95115.00
2023-07-04T00:06:50.697Z,95115.00
2023-07-04T00:07:50.768Z,95115.00
2023-07-04T00:08:50.833Z,95113.00
2023-07-04T00:09:50.900Z,95113.00
2023-07-04T00:10:51.143Z,95111.00
2023-07-04T00:11:51.013Z,95111.00
2023-07-04T00:12:51.075Z,95111.00
2023-07-04T00:13:51.207Z,95107.00
2023-07-04T00:14:51.165Z,95111.00
2023-07-04T00:15:51.204Z,95111.00
2023-07-04T00:16:51.315Z,95109.00
2023-07-04T00:17:51.314Z,95109.00
2023-07-04T00:18:51.276Z,95107.00
2023-07-04T00:19:51.284Z,95109.00
2023-07-04T00:20:51.410Z,95115.00
2023-07-04T00:21:51.302Z,95111.00
2023-07-04T00:22:51.353Z,95115.00
2023-07-04T00:23:51.299Z,95116.00
2023-07-04T00:24:51.335Z,95120.00
2023-07-04T00:25:51.402Z,95115.00
2023-07-04T00:26:51.422Z,95113.00
2023-07-04T00:27:51.477Z,95113.00
2023-07-04T00:28:51.461Z,95113.00
2023-07-04T00:29:51.509Z,95111.00
2023-07-04T00:30:51.737Z,95113.00
2023-07-04T00:31:51.536Z,95115.00
2023-07-04T00:32:51.615Z,95115.00
2023-07-04T00:33:51.565Z,95116.00
2023-07-04T00:34:51.571Z,95116.00
2023-07-04T00:35:51.594Z,95118.00
2023-07-04T00:36:51.593Z,95120.00
2023-07-04T00:37:51.589Z,95118.00
2023-07-04T00:38:51.575Z,95124.00
2023-07-04T00:39:51.569Z,95126.00
2023-07-04T00:40:51.825Z,95128.00
2023-07-04T00:41:51.565Z,95130.00
2023-07-04T00:42:51.575Z,95134.00
2023-07-04T00:43:51.569Z,95136.00
2023-07-04T00:44:51.572Z,95138.00
2023-07-04T00:45:51.602Z,95136.00
2023-07-04T00:46:51.620Z,95138.00
2023-07-04T00:47:51.583Z,95134.00
2023-07-04T00:48:51.586Z,95134.00
2023-07-04T00:49:51.591Z,95132.00
2023-07-04T00:50:51.798Z,95132.00
2023-07-04T00:51:51.581Z,95136.00
2023-07-04T00:52:51.585Z,95146.00
2023-07-04T00:53:51.601Z,95152.00
2023-07-04T00:54:51.615Z,95156.00
2023-07-04T00:55:51.635Z,95160.00
2023-07-04T00:56:51.617Z,95162.00
2023-07-04T00:57:51.647Z,95164.00
2023-07-04T00:58:51.641Z,95166.00
2023-07-04T00:59:51.643Z,95166.00
2023-07-04T01:00:51.981Z,95166.00
2023-07-04T01:01:51.703Z,95169.00
2023-07-04T01:02:51.741Z,95169.00
2023-07-04T01:03:51.732Z,95169.00
2023-07-04T01:04:51.642Z,95175.00
2023-07-04T01:05:51.626Z,95177.00
2023-07-04T01:06:51.613Z,95177.00
2023-07-04T01:07:51.612Z,95177.00
2023-07-04T01:08:51.593Z,95177.00
2023-07-04T01:09:51.597Z,95177.00
2023-07-04T01:10:51.970Z,95177.00
2023-07-04T01:11:51.592Z,95171.00
2023-07-04T01:12:51.586Z,95169.00
2023-07-04T01:13:51.635Z,95168.00
2023-07-04T01:14:51.568Z,95166.00
2023-07-04T01:15:51.581Z,95164.00
2023-07-04T01:16:51.579Z,95160.00
2023-07-04T01:17:51.629Z,95160.00
2023-07-04T01:18:51.568Z,95160.00
2023-07-04T01:19:51.568Z,95160.00
2023-07-04T01:20:51.811Z,95164.00
2023-07-04T01:21:51.536Z,95166.00
2023-07-04T01:22:51.546Z,95169.00
2023-07-04T01:23:51.553Z,95168.00
2023-07-04T01:24:51.557Z,95169.00
2023-07-04T01:25:51.614Z,95169.00
2023-07-04T01:26:51.570Z,95169.00
2023-07-04T01:27:51.586Z,95168.00
2023-07-04T01:28:51.590Z,95168.00
2023-07-04T01:29:51.630Z,95168.00
2023-07-04T01:30:51.978Z,95166.00
2023-07-04T01:31:51.723Z,95166.00
2023-07-04T01:32:51.692Z,95168.00
2023-07-04T01:33:51.708Z,95168.00
2023-07-04T01:34:51.697Z,95162.00
2023-07-04T01:35:51.730Z,95162.00
2023-07-04T01:36:51.751Z,95160.00
2023-07-04T01:37:51.756Z,95160.00
2023-07-04T01:38:51.773Z,95158.00
2023-07-04T01:39:51.779Z,95154.00
2023-07-04T01:40:52.077Z,95152.00
2023-07-04T01:41:51.818Z,95152.00
2023-07-04T01:42:51.836Z,95152.00
2023-07-04T01:43:51.823Z,95152.00
2023-07-04T01:44:51.811Z,95152.00
2023-07-04T01:45:51.878Z,95152.00
2023-07-04T01:46:51.849Z,95154.00
2023-07-04T01:47:51.887Z,95154.00
2023-07-04T01:48:51.821Z,95156.00
2023-07-04T01:49:51.843Z,95156.00
2023-07-04T01:50:52.004Z,95156.00
2023-07-04T01:51:51.827Z,95154.00
2023-07-04T01:52:51.865Z,95154.00
2023-07-04T01:53:51.921Z,95148.00
2023-07-04T01:54:51.922Z,95150.00
2023-07-04T01:55:51.932Z,95148.00
2023-07-04T01:56:51.928Z,95148.00
2023-07-04T01:57:51.934Z,95148.00
2023-07-04T01:58:51.959Z,95148.00
2023-07-04T01:59:51.947Z,95138.00
2023-07-04T02:00:52.245Z,95138.00
2023-07-04T02:01:52.033Z,95138.00
2023-07-04T02:02:52.110Z,95136.00
2023-07-04T02:03:52.054Z,95136.00
2023-07-04T02:04:52.092Z,95136.00
2023-07-04T02:05:52.124Z,95134.00
2023-07-04T02:06:52.106Z,95132.00
2023-07-04T02:07:52.144Z,95134.00
2023-07-04T02:08:52.128Z,95132.00
2023-07-04T02:09:52.158Z,95130.00
2023-07-04T02:10:52.401Z,95126.00
2023-07-04T02:11:52.188Z,95122.00
2023-07-04T02:12:52.231Z,95122.00
2023-07-04T02:13:52.345Z,95120.00
2023-07-04T02:14:52.331Z,95120.00
2023-07-04T02:15:52.312Z,95122.00
2023-07-04T02:16:52.313Z,95122.00
2023-07-04T02:17:52.316Z,95120.00
2023-07-04T02:18:52.308Z,95120.00
2023-07-04T02:19:52.328Z,95118.00
2023-07-04T02:20:52.559Z,95116.00
2023-07-04T02:21:52.393Z,95116.00
2023-07-04T02:22:52.380Z,95116.00
2023-07-04T02:23:52.408Z,95120.00
2023-07-04T02:24:52.401Z,95116.00
2023-07-04T02:25:52.423Z,95118.00
2023-07-04T02:26:52.458Z,95118.00
2023-07-04T02:27:52.469Z,95120.00
2023-07-04T02:28:52.476Z,95116.00
2023-07-04T02:29:52.489Z,95120.00
2023-07-04T02:30:52.806Z,95118.00
2023-07-04T02:31:52.601Z,95120.00
2023-07-04T02:32:52.646Z,95122.00
2023-07-04T02:33:52.545Z,95124.00
2023-07-04T02:34:52.565Z,95124.00
2023-07-04T02:35:52.589Z,95124.00
2023-07-04T02:36:52.585Z,95126.00
2023-07-04T02:37:52.636Z,95124.00
2023-07-04T02:38:52.634Z,95126.00
2023-07-04T02:39:52.633Z,95126.00
2023-07-04T02:40:53.063Z,95126.00
2023-07-04T02:41:52.668Z,95126.00
2023-07-04T02:42:52.711Z,95126.00
2023-07-04T02:43:52.713Z,95126.00
2023-07-04T02:44:52.716Z,95126.00
2023-07-04T02:45:52.743Z,95128.00
2023-07-04T02:46:52.784Z,95128.00
2023-07-04T02:47:52.818Z,95130.00
2023-07-04T02:48:52.791Z,95132.00
2023-07-04T02:49:52.780Z,95132.00
2023-07-04T02:50:53.140Z,95136.00
2023-07-04T02:51:52.774Z,95138.00
2023-07-04T02:52:52.771Z,95146.00
2023-07-04T02:53:52.799Z,95150.00
2023-07-04T02:54:52.767Z,95154.00
2023-07-04T02:55:52.767Z,95152.00
2023-07-04T02:56:52.772Z,95158.00
2023-07-04T02:57:52.758Z,95160.00
2023-07-04T02:58:52.800Z,95158.00
2023-07-04T02:59:52.812Z,95162.00
2023-07-04T03:00:53.171Z,95158.00
2023-07-04T03:01:52.835Z,95162.00
2023-07-04T03:02:53.042Z,95162.00
2023-07-04T03:03:52.969Z,95164.00
2023-07-04T03:04:53.364Z,95158.00
2023-07-04T03:05:52.815Z,95162.00
2023-07-04T03:06:52.807Z,95160.00
2023-07-04T03:07:52.817Z,95162.00
2023-07-04T03:08:52.827Z,95162.00
2023-07-04T03:09:52.830Z,95164.00
2023-07-04T03:10:53.113Z,95164.00
2023-07-04T03:11:52.809Z,95169.00
2023-07-04T03:12:52.803Z,95171.00
2023-07-04T03:13:52.947Z,95171.00
2023-07-04T03:14:52.804Z,95171.00
2023-07-04T03:15:52.810Z,95175.00
2023-07-04T03:16:52.822Z,95175.00
2023-07-04T03:17:52.848Z,95177.00
2023-07-04T03:18:52.812Z,95179.00
2023-07-04T03:19:52.806Z,95175.00
2023-07-04T03:20:53.147Z,95175.00
2023-07-04T03:21:52.803Z,95175.00
2023-07-04T03:22:52.833Z,95175.00
2023-07-04T03:23:52.801Z,95177.00
2023-07-04T03:24:52.805Z,95173.00
2023-07-04T03:25:52.832Z,95177.00
2023-07-04T03:26:52.824Z,95175.00
2023-07-04T03:27:52.835Z,95177.00
2023-07-04T03:28:52.832Z,95179.00
2023-07-04T03:29:52.825Z,95179.00
2023-07-04T03:30:53.123Z,95179.00
2023-07-04T03:31:52.838Z,95183.00
2023-07-04T03:32:52.918Z,95183.00
2023-07-04T03:33:52.850Z,95183.00
2023-07-04T03:34:52.852Z,95185.00
2023-07-04T03:35:58.719Z,95185.00
2023-07-04T03:36:52.869Z,95183.00
2023-07-04T03:37:52.864Z,95179.00
2023-07-04T03:38:52.864Z,95181.00
2023-07-04T03:39:52.858Z,95175.00
2023-07-04T03:40:53.144Z,95175.00
2023-07-04T03:41:52.872Z,95175.00
2023-07-04T03:42:52.885Z,95175.00
2023-07-04T03:43:52.853Z,95175.00
2023-07-04T03:44:52.842Z,95173.00
2023-07-04T03:45:52.871Z,95173.00
2023-07-04T03:46:52.847Z,95177.00
2023-07-04T03:47:52.930Z,95171.00
2023-07-04T03:48:52.956Z,95173.00
2023-07-04T03:49:52.858Z,95169.00
2023-07-04T03:50:53.056Z,95168.00
2023-07-04T03:51:52.808Z,95164.00
2023-07-04T03:52:52.814Z,95166.00
2023-07-04T03:53:52.805Z,95162.00
2023-07-04T03:54:52.809Z,95166.00
2023-07-04T03:55:52.803Z,95164.00
2023-07-04T03:56:52.820Z,95169.00
2023-07-04T03:57:52.807Z,95173.00
2023-07-04T03:58:52.793Z,95177.00
2023-07-04T03:59:52.788Z,95181.00
2023-07-04T04:00:53.213Z,95177.00
2023-07-04T04:01:52.761Z,95179.00
2023-07-04T04:02:52.837Z,95179.00
2023-07-04T04:03:52.976Z,95181.00
2023-07-04T04:04:52.932Z,95181.00
2023-07-04T04:05:52.769Z,95183.00
2023-07-04T04:06:52.763Z,95187.00
2023-07-04T04:07:52.766Z,95189.00
2023-07-04T04:08:52.761Z,95193.00
2023-07-04T04:09:52.755Z,95193.00
2023-07-04T04:10:52.911Z,95197.00
2023-07-04T04:11:52.730Z,95195.00
2023-07-04T04:12:52.738Z,95195.00
2023-07-04T04:13:52.853Z,95195.00
2023-07-04T04:14:52.713Z,95197.00
2023-07-04T04:15:52.715Z,95199.00
2023-07-04T04:16:52.848Z,95201.00
2023-07-04T04:17:52.745Z,95201.00
2023-07-04T04:18:52.724Z,95205.00
2023-07-04T04:19:52.718Z,95203.00
2023-07-04T04:20:53.080Z,95207.00
2023-07-04T04:21:52.706Z,95203.00
2023-07-04T04:22:52.705Z,95203.00
2023-07-04T04:23:52.722Z,95201.00
2023-07-04T04:24:52.707Z,95201.00
2023-07-04T04:25:52.713Z,95201.00
2023-07-04T04:26:52.719Z,95201.00
2023-07-04T04:27:52.689Z,95203.00
2023-07-04T04:28:52.682Z,95201.00
2023-07-04T04:29:52.693Z,95203.00
2023-07-04T04:30:52.874Z,95203.00
2023-07-04T04:31:52.662Z,95203.00
2023-07-04T04:32:52.768Z,95203.00
2023-07-04T04:33:52.740Z,95203.00
2023-07-04T04:34:52.675Z,95203.00
2023-07-04T04:35:52.682Z,95203.00
2023-07-04T04:36:52.686Z,95203.00
2023-07-04T04:37:52.736Z,95203.00
2023-07-04T04:38:52.676Z,95203.00
2023-07-04T04:39:52.665Z,95203.00
2023-07-04T04:40:53.034Z,95203.00
2023-07-04T04:41:52.672Z,95203.00
2023-07-04T04:42:52.662Z,95201.00
2023-07-04T04:43:52.692Z,95201.00
2023-07-04T04:44:52.654Z,95203.00
2023-07-04T04:45:52.840Z,95205.00
2023-07-04T04:46:52.742Z,95207.00
2023-07-04T04:47:52.675Z,95207.00
2023-07-04T04:48:52.659Z,95209.00
2023-07-04T04:49:52.669Z,95211.00
2023-07-04T04:50:52.845Z,95209.00
2023-07-04T04:51:52.633Z,95211.00
2023-07-04T04:52:52.633Z,95209.00
2023-07-04T04:53:52.634Z,95211.00
2023-07-04T04:54:52.657Z,95211.00
2023-07-04T04:55:52.629Z,95211.00
2023-07-04T04:56:52.628Z,95211.00
2023-07-04T04:57:52.629Z,95213.00
2023-07-04T04:58:53.451Z,95213.00
2023-07-04T04:59:52.664Z,95213.00
2023-07-04T05:00:52.795Z,95211.00
2023-07-04T05:01:52.696Z,95211.00
2023-07-04T05:02:52.843Z,95213.00
2023-07-04T05:03:52.700Z,95213.00
2023-07-04T05:04:52.624Z,95215.00
2023-07-04T05:05:52.630Z,95216.00
2023-07-04T05:06:52.630Z,95216.00
2023-07-04T05:07:52.650Z,95216.00
2023-07-04T05:08:52.704Z,95216.00
2023-07-04T05:09:52.639Z,95218.00
2023-07-04T05:10:52.804Z,95220.00
2023-07-04T05:11:52.621Z,95220.00
2023-07-04T05:12:52.626Z,95218.00
2023-07-04T05:13:52.701Z,95222.00
2023-07-04T05:14:52.615Z,95220.00
2023-07-04T05:15:52.931Z,95220.00
2023-07-04T05:16:52.606Z,95222.00
2023-07-04T05:17:52.709Z,95224.00
2023-07-04T05:18:52.628Z,95224.00
2023-07-04T05:19:52.642Z,95226.00
2023-07-04T05:20:52.862Z,95226.00
2023-07-04T05:21:52.699Z,95226.00
2023-07-04T05:22:52.702Z,95228.00
2023-07-04T05:23:52.712Z,95230.00
2023-07-04T05:24:52.831Z,95230.00
2023-07-04T05:25:52.732Z,95230.00
2023-07-04T05:26:52.765Z,95232.00
2023-07-04T05:27:52.730Z,95230.00
2023-07-04T05:28:52.738Z,95232.00
2023-07-04T05:29:52.762Z,95234.00
2023-07-04T05:30:52.982Z,95232.00
2023-07-04T05:31:52.902Z,95232.00
2023-07-04T05:32:52.896Z,95230.00
2023-07-04T05:33:52.902Z,95228.00
2023-07-04T05:34:52.888Z,95226.00
2023-07-04T05:35:52.906Z,95232.00
2023-07-04T05:36:53.027Z,95230.00
2023-07-04T05:37:52.962Z,95230.00
2023-07-04T05:38:52.976Z,95230.00
2023-07-04T05:39:52.977Z,95230.00
2023-07-04T05:40:53.225Z,95228.00
2023-07-04T05:41:53.025Z,95228.00
2023-07-04T05:42:53.503Z,95226.00
2023-07-04T05:43:53.468Z,95224.00
2023-07-04T05:44:53.115Z,95220.00
2023-07-04T05:45:53.122Z,95218.00
2023-07-04T05:46:53.185Z,95220.00
2023-07-04T05:47:53.288Z,95218.00
2023-07-04T05:48:53.249Z,95216.00
2023-07-04T05:49:53.290Z,95216.00
2023-07-04T05:50:53.460Z,95215.00
2023-07-04T05:51:53.439Z,95215.00
2023-07-04T05:52:53.315Z,95222.00
2023-07-04T05:53:53.369Z,95220.00
2023-07-04T05:54:53.363Z,95220.00
2023-07-04T05:55:53.446Z,95216.00
2023-07-04T05:56:53.997Z,95215.00
2023-07-04T05:57:53.559Z,95213.00
2023-07-04T05:58:53.599Z,95213.00
2023-07-04T05:59:53.661Z,95213.00
2023-07-04T06:00:54.074Z,95211.00
2023-07-04T06:01:53.951Z,95213.00
2023-07-04T06:02:53.827Z,95213.00
2023-07-04T06:03:53.844Z,95211.00
2023-07-04T06:04:53.960Z,95211.00
2023-07-04T06:05:53.937Z,95209.00
2023-07-04T06:06:53.970Z,95207.00
2023-07-04T06:07:53.932Z,95209.00
2023-07-04T06:08:53.995Z,95203.00
2023-07-04T06:09:54.456Z,95203.00
2023-07-04T06:10:54.360Z,95201.00
2023-07-04T06:11:54.157Z,95205.00
2023-07-04T06:12:54.168Z,95205.00
2023-07-04T06:13:54.513Z,95205.00
2023-07-04T06:14:54.477Z,95207.00
2023-07-04T06:15:54.360Z,95205.00
2023-07-04T06:16:54.340Z,95207.00
2023-07-04T06:17:55.506Z,95207.00
2023-07-04T06:18:54.531Z,95203.00
2023-07-04T06:19:54.570Z,95201.00
2023-07-04T06:20:54.705Z,95197.00
2023-07-04T06:21:54.652Z,95199.00
2023-07-04T06:22:54.683Z,95195.00
2023-07-04T06:23:55.002Z,95195.00
2023-07-04T06:24:54.846Z,95193.00
2023-07-04T06:25:54.932Z,95193.00
2023-07-04T06:26:55.010Z,95197.00
2023-07-04T06:27:55.091Z,95195.00
2023-07-04T06:28:55.494Z,95193.00
2023-07-04T06:29:55.249Z,95197.00
2023-07-04T06:30:55.377Z,95193.00
2023-07-04T06:31:55.402Z,95195.00
2023-07-04T06:32:55.534Z,95193.00
2023-07-04T06:33:56.047Z,95193.00
2023-07-04T06:34:55.975Z,95197.00
2023-07-04T06:35:55.680Z,95197.00
2023-07-04T06:36:55.744Z,95197.00
2023-07-04T06:37:55.884Z,95199.00
2023-07-04T06:38:55.889Z,95197.00
2023-07-04T06:39:55.985Z,95199.00
2023-07-04T06:40:56.020Z,95199.00
2023-07-04T06:41:56.102Z,95199.00
2023-07-04T06:42:56.158Z,95197.00
2023-07-04T06:43:56.279Z,95197.00
2023-07-04T06:44:56.296Z,95197.00
2023-07-04T06:45:56.400Z,95197.00
2023-07-04T06:46:56.455Z,95197.00
2023-07-04T06:47:56.585Z,95199.00
2023-07-04T06:48:56.503Z,95197.00
2023-07-04T06:49:56.973Z,95199.00
2023-07-04T06:50:56.605Z,95197.00
2023-07-04T06:51:57.569Z,95197.00
2023-07-04T06:52:56.648Z,95195.00
2023-07-04T06:53:57.002Z,95197.00
2023-07-04T06:54:56.722Z,95195.00
2023-07-04T06:55:56.758Z,95195.00
2023-07-04T06:56:56.861Z,95195.00
2023-07-04T06:57:56.835Z,95193.00
2023-07-04T06:58:56.863Z,95193.00
2023-07-04T06:59:56.895Z,95191.00
2023-07-04T07:00:57.329Z,95191.00
2023-07-04T07:01:57.099Z,95193.00
2023-07-04T07:02:57.299Z,95197.00
2023-07-04T07:03:57.754Z,95201.00
2023-07-04T07:04:57.528Z,95197.00
2023-07-04T07:05:57.068Z,95197.00
2023-07-04T07:06:57.094Z,95199.00
2023-07-04T07:07:57.120Z,95197.00
2023-07-04T07:08:57.175Z,95197.00
2023-07-04T07:09:57.510Z,95199.00
2023-07-04T07:10:57.190Z,95195.00
2023-07-04T07:11:57.478Z,95197.00
2023-07-04T07:12:57.227Z,95199.00
2023-07-04T07:13:57.383Z,95199.00
2023-07-04T07:14:57.299Z,95199.00
2023-07-04T07:16:56.512Z,95199.00
2023-07-04T07:17:57.440Z,95201.00
2023-07-04T07:18:59.065Z,95199.00
2023-07-04T07:19:58.124Z,95201.00
2023-07-04T07:20:57.419Z,95199.00
2023-07-04T07:21:57.432Z,95203.00
2023-07-04T07:22:57.479Z,95199.00
2023-07-04T07:23:58.693Z,95197.00
2023-07-04T07:24:58.006Z,95197.00
2023-07-04T07:25:57.866Z,95199.00
2023-07-04T07:26:58.505Z,95197.00
2023-07-04T07:27:58.666Z,95195.00
2023-07-04T07:28:57.694Z,95193.00
2023-07-04T07:29:58.497Z,95195.00
2023-07-04T07:30:57.678Z,95197.00
2023-07-04T07:31:58.170Z,95197.00
2023-07-04T07:32:57.741Z,95195.00
2023-07-04T07:33:58.016Z,95199.00
2023-07-04T07:34:57.761Z,95193.00
2023-07-04T07:35:57.779Z,95193.00
2023-07-04T07:36:57.819Z,95193.00
2023-07-04T07:37:57.845Z,95197.00
2023-07-04T07:38:58.067Z,95199.00
2023-07-04T07:39:57.883Z,95199.00
2023-07-04T07:40:57.916Z,95201.00
2023-07-04T07:41:57.946Z,95201.00
2023-07-04T07:42:57.950Z,95197.00
2023-07-04T07:43:57.986Z,95197.00
2023-07-04T07:44:58.501Z,95197.00
2023-07-04T07:45:58.100Z,95195.00
2023-07-04T07:46:58.645Z,95195.00
2023-07-04T07:47:58.572Z,95195.00
2023-07-04T07:48:59.309Z,95193.00
2023-07-04T07:49:58.183Z,95195.00
2023-07-04T07:50:58.292Z,95193.00
2023-07-04T07:51:58.499Z,95191.00
2023-07-04T07:52:58.445Z,95191.00
2023-07-04T07:53:58.513Z,95191.00
2023-07-04T07:54:58.627Z,95187.00
2023-07-04T07:55:58.718Z,95187.00
2023-07-04T07:56:58.994Z,95187.00
2023-07-04T07:58:01.024Z,95189.00
2023-07-04T07:58:58.809Z,95193.00
2023-07-04T07:59:58.780Z,95191.00
2023-07-04T08:00:58.792Z,95193.00
2023-07-04T08:01:58.794Z,95189.00
2023-07-04T08:02:58.880Z,95191.00
2023-07-04T08:03:58.969Z,95189.00
2023-07-04T08:04:58.926Z,95187.00
2023-07-04T08:05:58.835Z,95189.00
2023-07-04T08:06:58.848Z,95185.00
2023-07-04T08:07:58.870Z,95177.00
2023-07-04T08:08:59.011Z,95185.00
2023-07-04T08:09:59.006Z,95183.00
2023-07-04T08:10:58.881Z,95181.00
2023-07-04T08:11:59.063Z,95183.00
2023-07-04T08:12:58.879Z,95183.00
2023-07-04T08:13:59.073Z,95183.00
2023-07-04T08:14:58.894Z,95183.00
2023-07-04T08:15:58.981Z,95179.00
2023-07-04T08:16:59.549Z,95179.00
2023-07-04T08:17:59.119Z,95175.00
2023-07-04T08:18:59.151Z,95175.00
2023-07-04T08:19:59.227Z,95175.00
2023-07-04T08:20:59.296Z,95175.00
2023-07-04T08:21:59.368Z,95173.00
2023-07-04T08:22:59.441Z,95175.00
2023-07-04T08:23:59.597Z,95173.00
2023-07-04T08:24:59.551Z,95169.00
2023-07-04T08:25:59.595Z,95168.00
2023-07-04T08:26:59.729Z,95166.00
2023-07-04T08:27:59.711Z,95168.00
2023-07-04T08:29:00.064Z,95164.00
2023-07-04T08:29:59.847Z,95166.00
2023-07-04T08:30:59.886Z,95164.00
2023-07-04T08:31:59.957Z,95162.00
2023-07-04T08:33:00.029Z,95162.00
2023-07-04T08:34:00.071Z,95164.00
2023-07-04T08:35:00.513Z,95160.00
2023-07-04T08:36:00.134Z,95158.00
2023-07-04T08:37:00.185Z,95160.00
2023-07-04T08:38:00.232Z,95156.00
2023-07-04T08:39:00.290Z,95156.00
2023-07-04T08:40:00.333Z,95154.00
2023-07-04T08:41:00.515Z,95158.00
2023-07-04T08:42:00.517Z,95160.00
2023-07-04T08:43:00.485Z,95158.00
2023-07-04T08:44:00.538Z,95158.00
2023-07-04T08:45:00.601Z,95158.00
2023-07-04T08:46:01.085Z,95156.00
2023-07-04T08:47:00.718Z,95154.00
2023-07-04T08:48:00.837Z,95152.00
2023-07-04T08:49:00.818Z,95150.00
2023-07-04T08:50:00.926Z,95150.00
2023-07-04T08:51:01.028Z,95150.00
2023-07-04T08:52:00.956Z,95148.00
2023-07-04T08:53:01.002Z,95146.00
2023-07-04T08:54:01.033Z,95148.00
2023-07-04T08:55:01.082Z,95146.00
2023-07-04T08:56:01.101Z,95148.00
2023-07-04T08:57:01.141Z,95148.00
2023-07-04T08:58:01.162Z,95148.00
2023-07-04T08:59:01.542Z,95152.00
2023-07-04T09:00:01.244Z,95148.00
2023-07-04T09:01:01.274Z,95148.00
2023-07-04T09:02:01.350Z,95146.00
2023-07-04T09:03:01.509Z,95146.00
2023-07-04T09:04:01.557Z,95138.00
2023-07-04T09:05:01.436Z,95136.00
2023-07-04T09:06:01.525Z,95150.00
2023-07-04T09:07:01.523Z,95146.00
2023-07-04T09:08:01.594Z,95146.00
2023-07-04T09:09:01.630Z,95136.00
2023-07-04T09:10:01.681Z,95136.00
2023-07-04T09:11:01.718Z,95132.00
2023-07-04T09:12:01.775Z,95134.00
2023-07-04T09:13:01.891Z,95136.00
2023-07-04T09:14:02.147Z,95134.00
2023-07-04T09:15:01.916Z,95136.00
2023-07-04T09:16:02.085Z,95132.00
2023-07-04T09:17:01.996Z,95132.00
2023-07-04T09:18:16.580Z,95128.00
2023-07-04T09:19:02.055Z,95132.00
2023-07-04T09:20:02.043Z,95128.00
2023-07-04T09:21:02.537Z,95124.00
2023-07-04T09:22:02.024Z,95126.00
2023-07-04T09:23:02.032Z,95126.00
2023-07-04T09:24:02.034Z,95128.00
2023-07-04T09:25:02.032Z,95126.00
2023-07-04T09:26:02.036Z,95122.00
2023-07-04T09:27:02.029Z,95124.00
2023-07-04T09:28:02.008Z,95124.00
2023-07-04T09:29:02.012Z,95124.00
2023-07-04T09:30:02.024Z,95122.00
2023-07-04T09:31:02.035Z,95124.00
2023-07-04T09:32:02.433Z,95122.00
2023-07-04T09:33:01.999Z,95122.00
2023-07-04T09:34:02.039Z,95120.00
2023-07-04T09:35:02.044Z,95116.00
2023-07-04T09:36:02.000Z,95115.00
2023-07-04T09:37:02.000Z,95113.00
2023-07-04T09:38:02.031Z,95113.00
2023-07-04T09:39:01.986Z,95115.00
2023-07-04T09:40:02.053Z,95116.00
2023-07-04T09:41:02.051Z,95116.00
2023-07-04T09:43:00.969Z,95115.00
2023-07-04T09:44:01.987Z,95116.00
2023-07-04T09:45:02.065Z,95113.00
2023-07-04T09:46:02.040Z,95111.00
2023-07-04T09:47:01.974Z,95109.00
2023-07-04T09:48:02.001Z,95111.00
2023-07-04T09:49:01.950Z,95109.00
2023-07-04T09:50:01.987Z,95103.00
2023-07-04T09:51:01.957Z,95103.00
2023-07-04T09:52:01.957Z,95103.00
2023-07-04T09:53:01.986Z,95107.00
2023-07-04T09:54:01.952Z,95109.00
2023-07-04T09:55:01.953Z,95109.00
2023-07-04T09:56:01.944Z,95115.00
2023-07-04T09:57:01.935Z,95113.00
2023-07-04T09:58:01.928Z,95111.00
2023-07-04T09:59:01.938Z,95113.00
2023-07-04T10:00:01.976Z,95107.00
2023-07-04T10:01:02.009Z,95107.00
2023-07-04T10:02:01.979Z,95105.00
2023-07-04T10:03:02.009Z,95103.00
2023-07-04T10:04:01.936Z,95101.00
2023-07-04T10:05:01.964Z,95103.00
2023-07-04T10:06:02.075Z,95099.00
2023-07-04T10:07:01.927Z,95101.00
2023-07-04T10:08:01.925Z,95095.00
2023-07-04T10:09:01.931Z,95093.00
2023-07-04T10:10:02.056Z,95099.00
2023-07-04T10:11:01.909Z,95099.00
2023-07-04T10:12:01.901Z,95099.00
2023-07-04T10:13:01.901Z,95095.00
2023-07-04T10:14:02.024Z,95093.00
2023-07-04T10:15:01.900Z,95093.00
2023-07-04T10:16:01.877Z,95091.00
2023-07-04T10:17:01.910Z,95093.00
2023-07-04T10:18:01.914Z,95087.00
2023-07-04T10:19:01.873Z,95091.00
2023-07-04T10:20:01.900Z,95087.00
2023-07-04T10:21:01.876Z,95087.00
2023-07-04T10:22:01.892Z,95087.00
2023-07-04T10:23:01.906Z,95085.00
2023-07-04T10:24:01.869Z,95089.00
2023-07-04T10:25:01.860Z,95083.00
2023-07-04T10:26:01.899Z,95079.00
2023-07-04T10:27:01.854Z,95077.00
2023-07-04T10:28:01.860Z,95081.00
2023-07-04T10:29:01.853Z,95073.00
2023-07-04T10:30:01.855Z,95075.00
2023-07-04T10:31:02.290Z,95071.00
2023-07-04T10:32:01.847Z,95069.00
2023-07-04T10:33:01.888Z,95071.00
2023-07-04T10:34:01.842Z,95069.00
2023-07-04T10:35:01.838Z,95067.00
2023-07-04T10:36:01.837Z,95065.00
2023-07-04T10:37:01.846Z,95061.00
2023-07-04T10:38:01.856Z,95061.00
2023-07-04T10:39:01.839Z,95056.00
2023-07-04T10:40:01.817Z,95056.00
2023-07-04T10:41:01.818Z,95054.00
2023-07-04T10:42:01.815Z,95058.00
2023-07-04T10:43:01.825Z,95058.00
2023-07-04T10:44:01.866Z,95056.00
2023-07-04T10:45:01.883Z,95056.00
2023-07-04T10:46:02.213Z,95060.00
2023-07-04T10:47:02.053Z,95054.00
2023-07-04T10:48:01.969Z,95056.00
2023-07-04T10:49:01.929Z,95050.00
2023-07-04T10:50:01.929Z,95050.00
2023-07-04T10:51:01.917Z,95054.00
2023-07-04T10:52:01.923Z,95046.00
2023-07-04T10:53:01.935Z,95046.00
2023-07-04T10:54:02.052Z,95048.00
2023-07-04T10:55:01.968Z,95044.00
2023-07-04T10:56:01.984Z,95040.00
2023-07-04T10:57:01.974Z,95040.00
2023-07-04T10:58:01.998Z,95036.00
2023-07-04T10:59:02.012Z,95034.00
2023-07-04T11:00:04.450Z,95034.00
2023-07-04T11:01:02.104Z,95034.00
2023-07-04T11:02:02.057Z,95034.00
2023-07-04T11:03:02.097Z,95030.00
2023-07-04T11:04:02.068Z,95024.00
2023-07-04T11:05:01.996Z,95026.00
2023-07-04T11:06:04.495Z,95028.00
2023-07-04T11:07:01.975Z,95028.00
2023-07-04T11:08:01.976Z,95028.00
2023-07-04T11:09:01.970Z,95022.00
2023-07-04T11:10:01.980Z,95024.00
2023-07-04T11:11:01.956Z,95024.00
2023-07-04T11:12:01.983Z,95020.00
2023-07-04T11:13:01.966Z,95020.00
2023-07-04T11:14:01.952Z,95022.00
2023-07-04T11:15:01.941Z,95020.00
2023-07-04T11:16:01.940Z,95018.00
2023-07-04T11:17:03.460Z,95016.00
2023-07-04T11:18:02.264Z,95018.00
2023-07-04T11:19:02.576Z,95014.00
2023-07-04T11:20:02.343Z,95016.00
2023-07-04T11:21:02.345Z,95016.00
2023-07-04T11:22:02.401Z,95016.00
2023-07-04T11:23:05.608Z,95013.00
2023-07-04T11:24:02.454Z,95011.00
2023-07-04T11:25:02.453Z,95009.00
2023-07-04T11:26:02.478Z,95009.00
2023-07-04T11:27:02.456Z,95005.00
2023-07-04T11:28:02.452Z,95003.00
2023-07-04T11:29:02.460Z,95007.00
2023-07-04T11:30:02.532Z,95005.00
2023-07-04T11:31:02.489Z,95005.00
2023-07-04T11:32:02.456Z,95005.00
2023-07-04T11:33:02.473Z,95001.00
2023-07-04T11:34:02.480Z,95001.00
2023-07-04T11:35:02.457Z,94997.00
2023-07-04T11:36:02.444Z,94999.00
2023-07-04T11:37:02.444Z,95003.00
2023-07-04T11:38:02.442Z,94999.00
2023-07-04T11:39:02.420Z,95001.00
2023-07-04T11:40:02.430Z,94997.00
2023-07-04T11:41:02.409Z,95001.00
2023-07-04T11:42:02.482Z,94997.00
2023-07-04T11:43:02.504Z,94995.00
2023-07-04T11:44:02.566Z,94993.00
2023-07-04T11:45:02.608Z,94997.00
2023-07-04T11:46:02.691Z,94993.00
2023-07-04T11:47:02.709Z,94995.00